Time;durP1;ratioP1;P1;durP2;ratioP2;P2;SDS_P1;SDS_P2;PMS_P1;PMS_P2;Temp;Humidity;BMP_temperature;BMP_pressure;BME280_temperature;BME280_humidity;BME280_pressure;Samples;Min_cycle;Max_cycle;Signal;HPM_P1;HPM_P2
2023/07/25 00:00:49;;;;;;;6.45;1.65;;;15.50;99.90;;;;;;6188349;23;20012;-74
2023/07/25 00:03:15;;;;;;;7.22;1.67;;;15.50;99.90;;;;;;6161730;23;20108;-73
2023/07/25 00:05:40;;;;;;;7.22;1.85;;;15.50;99.90;;;;;;6161671;23;20115;-74
2023/07/25 00:08:06;;;;;;;9.80;2.45;;;15.50;99.90;;;;;;6161663;23;20024;-73
2023/07/25 00:10:33;;;;;;;7.38;1.95;;;15.40;99.90;;;;;;6161572;23;20029;-73
2023/07/25 00:12:59;;;;;;;10.05;2.30;;;15.40;99.90;;;;;;6161486;23;20017;-74
2023/07/25 00:15:25;;;;;;;8.60;2.50;;;15.40;99.90;;;;;;6161355;23;20422;-74
2023/07/25 00:17:50;;;;;;;7.55;2.20;;;15.40;99.90;;;;;;6161554;23;20075;-74
2023/07/25 00:20:16;;;;;;;6.88;2.05;;;15.40;99.90;;;;;;6187988;23;20032;-74
2023/07/25 00:22:42;;;;;;;10.25;2.55;;;15.40;99.90;;;;;;6187745;23;20024;-73
2023/07/25 00:25:09;;;;;;;5.97;2.33;;;15.40;99.90;;;;;;6161204;23;20021;-74
2023/07/25 00:27:36;;;;;;;9.45;2.42;;;15.40;99.90;;;;;;6161396;23;20441;-74
2023/07/25 00:30:03;;;;;;;10.35;2.53;;;15.50;99.90;;;;;;6187638;23;20476;-74
2023/07/25 00:32:29;;;;;;;8.07;2.10;;;15.50;99.90;;;;;;6161293;23;20021;-74
2023/07/25 00:34:55;;;;;;;10.32;2.40;;;15.50;99.90;;;;;;6161267;23;20050;-74
2023/07/25 00:37:23;;;;;;;6.70;2.03;;;15.50;99.90;;;;;;6187826;23;20017;-74
2023/07/25 00:39:53;;;;;;;8.18;2.28;;;15.60;99.90;;;;;;6161288;23;20070;-74
2023/07/25 00:42:19;;;;;;;10.55;2.45;;;15.60;99.90;;;;;;6188335;23;20024;-74
2023/07/25 00:44:44;;;;;;;6.20;2.28;;;15.60;99.90;;;;;;6187485;23;20025;-74
2023/07/25 00:47:10;;;;;;;8.88;2.90;;;15.60;99.90;;;;;;6161233;23;20048;-74
2023/07/25 00:49:36;;;;;;;9.43;2.20;;;15.60;99.90;;;;;;6161203;23;20063;-73
2023/07/25 00:52:02;;;;;;;7.47;2.33;;;15.60;99.90;;;;;;6160999;23;20039;-73
2023/07/25 00:54:27;;;;;;;8.75;2.28;;;15.60;99.90;;;;;;6161188;23;20021;-74
2023/07/25 00:56:53;;;;;;;6.53;2.35;;;15.60;99.90;;;;;;6161103;23;20318;-74
2023/07/25 00:59:19;;;;;;;10.38;2.05;;;15.60;99.90;;;;;;6161117;23;20013;-74
2023/07/25 01:01:47;;;;;;;10.40;2.28;;;15.60;99.90;;;;;;6161147;23;20017;-73
2023/07/25 01:04:13;;;;;;;6.25;2.03;;;15.50;99.90;;;;;;6160980;23;20440;-74
2023/07/25 01:06:39;;;;;;;11.23;2.40;;;15.60;99.90;;;;;;6161030;23;20021;-74
2023/07/25 01:09:04;;;;;;;12.55;2.53;;;15.60;99.90;;;;;;6160628;23;20024;-74
2023/07/25 01:11:30;;;;;;;10.43;2.10;;;15.60;99.90;;;;;;6161002;23;20013;-74
2023/07/25 01:13:56;;;;;;;9.57;2.30;;;15.60;99.90;;;;;;6161016;23;20067;-74
2023/07/25 01:16:24;;;;;;;10.77;2.42;;;15.60;99.90;;;;;;6160910;23;20090;-74
2023/07/25 01:18:50;;;;;;;9.43;2.00;;;15.50;99.90;;;;;;6160971;23;20017;-74
2023/07/25 01:21:17;;;;;;;10.25;2.08;;;15.50;99.90;;;;;;6160853;23;20057;-73
2023/07/25 01:23:43;;;;;;;7.40;2.00;;;15.60;99.90;;;;;;6160781;23;20021;-74
2023/07/25 01:26:08;;;;;;;6.30;2.20;;;15.60;99.90;;;;;;6160498;23;20021;-74
2023/07/25 01:28:37;;;;;;;9.02;2.08;;;15.50;99.90;;;;;;6160749;23;20076;-74
2023/07/25 01:31:05;;;;;;;7.70;2.20;;;15.50;99.90;;;;;;6160758;23;20404;-74
2023/07/25 01:33:30;;;;;;;9.52;2.40;;;15.50;99.90;;;;;;6160570;23;20017;-74
2023/07/25 01:35:56;;;;;;;10.30;2.15;;;15.40;99.90;;;;;;6160969;23;20110;-73
2023/07/25 01:38:22;;;;;;;11.85;2.35;;;15.50;99.90;;;;;;6160768;23;20021;-74
2023/07/25 01:40:47;;;;;;;8.77;2.92;;;15.50;99.90;;;;;;6160764;23;20092;-74
2023/07/25 01:43:13;;;;;;;9.27;2.20;;;15.50;99.90;;;;;;6160731;23;20024;-74
2023/07/25 01:45:38;;;;;;;7.53;2.13;;;15.50;99.90;;;;;;6160695;23;20499;-74
2023/07/25 01:48:04;;;;;;;11.60;2.53;;;15.50;99.90;;;;;;6160723;23;20013;-74
2023/07/25 01:50:30;;;;;;;9.10;2.45;;;15.40;99.90;;;;;;6160521;23;20025;-74
2023/07/25 01:52:56;;;;;;;12.18;2.55;;;15.40;99.90;;;;;;6160651;23;20392;-74
2023/07/25 01:55:22;;;;;;;6.78;2.05;;;15.40;99.90;;;;;;6160591;23;20017;-74
2023/07/25 01:57:47;;;;;;;8.60;2.10;;;15.40;99.90;;;;;;6187288;23;20100;-74
2023/07/25 02:00:13;;;;;;;9.65;2.10;;;15.40;99.90;;;;;;6160567;23;20060;-74
2023/07/25 02:02:39;;;;;;;8.32;2.40;;;15.30;99.90;;;;;;6160511;23;20445;-73
2023/07/25 02:05:06;;;;;;;15.98;2.95;;;15.30;99.90;;;;;;6187130;23;20017;-74
2023/07/25 02:07:31;;;;;;;10.85;2.50;;;15.30;99.90;;;;;;6160578;23;20020;-74
2023/07/25 02:09:57;;;;;;;11.10;2.85;;;15.30;99.90;;;;;;6160488;23;20029;-75
2023/07/25 02:12:23;;;;;;;10.00;2.60;;;15.20;99.90;;;;;;6160552;23;20024;-74
2023/07/25 02:14:58;;;;;;;12.73;2.92;;;15.20;99.90;;;;;;6160347;23;20345;-74
2023/07/25 02:17:23;;;;;;;12.65;2.80;;;15.20;99.90;;;;;;6160322;23;20052;-75
2023/07/25 02:19:49;;;;;;;10.65;2.90;;;15.10;99.90;;;;;;6160357;23;20013;-74
2023/07/25 02:22:15;;;;;;;12.70;2.63;;;15.10;99.90;;;;;;6187025;23;20076;-74
2023/07/25 02:24:41;;;;;;;9.70;2.55;;;15.10;99.90;;;;;;6160163;23;20445;-74
2023/07/25 02:27:08;;;;;;;10.90;2.20;;;15.10;99.90;;;;;;6160406;23;20450;-74
2023/07/25 02:29:34;;;;;;;8.10;2.17;;;15.10;99.90;;;;;;6160237;23;20020;-74
2023/07/25 02:31:59;;;;;;;8.60;2.15;;;15.10;99.90;;;;;;6160219;23;20056;-75
2023/07/25 02:34:25;;;;;;;6.38;2.10;;;15.00;99.90;;;;;;6160194;23;20398;-74
2023/07/25 02:36:50;;;;;;;9.60;2.17;;;15.10;99.90;;;;;;6160166;23;20067;-73
2023/07/25 02:39:16;;;;;;;8.50;2.03;;;15.00;99.90;;;;;;6160381;23;20021;-74
2023/07/25 02:41:42;;;;;;;11.45;2.75;;;15.00;99.90;;;;;;6160185;23;20075;-74
2023/07/25 02:44:07;;;;;;;9.27;2.35;;;15.00;99.90;;;;;;6160245;23;20024;-74
2023/07/25 02:46:33;;;;;;;5.15;1.75;;;14.90;99.90;;;;;;6160072;23;20016;-74
2023/07/25 02:48:58;;;;;;;6.80;1.42;;;14.90;99.90;;;;;;6160136;23;20021;-75
2023/07/25 02:51:24;;;;;;;5.82;1.80;;;14.90;99.90;;;;;;6186498;23;20021;-74
2023/07/25 02:53:50;;;;;;;8.82;1.70;;;14.80;99.90;;;;;;6160129;23;20087;-74
2023/07/25 02:56:15;;;;;;;5.13;1.73;;;14.90;99.90;;;;;;6186607;23;20019;-74
2023/07/25 02:58:41;;;;;;;5.43;1.98;;;14.90;99.90;;;;;;6186479;23;20028;-74
2023/07/25 03:01:06;;;;;;;8.23;1.65;;;14.90;99.90;;;;;;6160057;23;20390;-74
2023/07/25 03:03:32;;;;;;;4.72;1.58;;;14.90;99.90;;;;;;6160054;23;20052;-74
2023/07/25 03:05:57;;;;;;;4.38;1.35;;;14.90;99.90;;;;;;6159929;23;20104;-74
2023/07/25 03:08:23;;;;;;;7.85;1.88;;;14.80;99.90;;;;;;6159947;23;20354;-75
2023/07/25 03:10:49;;;;;;;8.32;1.90;;;14.80;99.90;;;;;;6159907;23;20067;-74
2023/07/25 03:13:16;;;;;;;5.88;1.80;;;14.80;99.90;;;;;;6159964;23;20024;-74
2023/07/25 03:15:41;;;;;;;9.35;1.77;;;14.80;99.90;;;;;;6159751;23;20140;-73
2023/07/25 03:18:07;;;;;;;6.63;1.85;;;14.80;99.90;;;;;;6160010;23;20053;-75
2023/07/25 03:20:32;;;;;;;6.95;1.70;;;14.80;99.90;;;;;;6186478;23;20013;-74
2023/07/25 03:22:58;;;;;;;5.25;1.48;;;14.80;99.90;;;;;;6159881;23;20028;-74
2023/07/25 03:25:26;;;;;;;5.60;1.60;;;14.80;99.90;;;;;;6159146;23;20048;-74
2023/07/25 03:27:51;;;;;;;8.52;2.05;;;14.90;99.90;;;;;;6158632;23;20107;-74
2023/07/25 03:30:17;;;;;;;5.45;1.95;;;14.90;99.90;;;;;;6158615;23;20425;-74
2023/07/25 03:32:43;;;;;;;6.40;1.63;;;14.80;99.90;;;;;;6184794;23;20021;-74
2023/07/25 03:35:09;;;;;;;5.43;1.50;;;14.80;99.90;;;;;;6158038;23;20107;-74
2023/07/25 03:37:34;;;;;;;8.63;2.15;;;14.80;99.90;;;;;;6158427;23;20017;-74
2023/07/25 03:40:00;;;;;;;8.52;1.90;;;14.80;99.90;;;;;;6184679;23;20017;-74
2023/07/25 03:42:26;;;;;;;9.57;1.80;;;14.90;99.90;;;;;;6157563;23;20096;-74
2023/07/25 03:44:52;;;;;;;7.82;2.03;;;14.80;99.90;;;;;;6157485;23;20020;-74
2023/07/25 03:47:18;;;;;;;10.57;1.70;;;14.90;99.90;;;;;;6158334;23;20360;-74
2023/07/25 03:49:45;;;;;;;7.03;2.03;;;14.80;99.90;;;;;;6158528;23;20496;-74
2023/07/25 03:52:11;;;;;;;7.55;1.90;;;14.80;99.90;;;;;;6158435;23;20349;-74
2023/07/25 03:54:40;;;;;;;10.48;2.47;;;14.80;99.90;;;;;;6158374;23;20449;-74
2023/07/25 03:57:06;;;;;;;6.43;1.85;;;14.80;99.90;;;;;;6158216;23;20074;-75
2023/07/25 03:59:31;;;;;;;6.20;1.90;;;14.90;99.90;;;;;;6158259;23;20027;-74
2023/07/25 04:01:57;;;;;;;9.18;1.73;;;14.90;99.90;;;;;;6158307;23;20080;-74
2023/07/25 04:04:23;;;;;;;6.20;1.75;;;14.90;99.90;;;;;;6158221;23;20009;-74
2023/07/25 04:06:48;;;;;;;8.23;1.80;;;14.90;99.90;;;;;;6158197;23;20445;-74
2023/07/25 04:09:14;;;;;;;10.68;3.58;;;15.00;99.90;;;;;;6158176;23;20006;-74
2023/07/25 04:11:39;;;;;;;5.90;1.80;;;15.00;99.90;;;;;;6158159;23;20111;-74
2023/07/25 04:14:06;;;;;;;6.63;1.35;;;15.00;99.90;;;;;;6158100;23;20100;-73
2023/07/25 04:16:31;;;;;;;10.48;1.70;;;15.00;99.90;;;;;;6184662;23;20017;-74
2023/07/25 04:18:57;;;;;;;7.63;1.70;;;15.00;99.90;;;;;;6158119;23;20089;-74
2023/07/25 04:21:23;;;;;;;5.75;1.55;;;14.90;99.90;;;;;;6158075;23;20337;-74
2023/07/25 04:23:48;;;;;;;9.57;1.98;;;14.90;99.90;;;;;;6158055;23;20437;-74
2023/07/25 04:26:15;;;;;;;11.77;2.57;;;14.90;99.90;;;;;;6105060;23;1862194;-75
2023/07/25 04:28:41;;;;;;;9.18;1.73;;;14.90;99.90;;;;;;6159235;23;20028;-73
2023/07/25 04:31:06;;;;;;;8.25;1.70;;;14.90;99.90;;;;;;6159362;23;20013;-74
2023/07/25 04:33:32;;;;;;;5.82;1.50;;;14.90;99.90;;;;;;6185644;23;20017;-74
2023/07/25 04:35:57;;;;;;;6.80;1.65;;;14.90;99.90;;;;;;6185672;23;20020;-74
2023/07/25 04:38:23;;;;;;;8.35;1.75;;;14.90;99.90;;;;;;6159188;23;20072;-74
2023/07/25 04:40:49;;;;;;;4.75;1.42;;;14.80;99.90;;;;;;6159256;23;20024;-74
2023/07/25 04:43:14;;;;;;;4.85;1.73;;;14.80;99.90;;;;;;6159309;23;20472;-73
2023/07/25 04:45:40;;;;;;;8.38;1.42;;;14.80;99.90;;;;;;6187003;23;20337;-74
2023/07/25 04:48:06;;;;;;;5.70;1.52;;;14.80;99.90;;;;;;6161194;23;20450;-75
2023/07/25 04:50:31;;;;;;;6.60;1.40;;;14.80;99.90;;;;;;6187757;23;20040;-74
2023/07/25 04:52:57;;;;;;;6.15;1.60;;;14.80;99.90;;;;;;6161090;23;20017;-74
2023/07/25 04:55:22;;;;;;;7.60;1.85;;;14.80;99.90;;;;;;6187314;23;20055;-74
2023/07/25 04:57:51;;;;;;;6.40;1.33;;;14.90;99.90;;;;;;6187589;23;20021;-74
2023/07/25 05:00:17;;;;;;;7.78;1.65;;;15.00;99.90;;;;;;6187311;23;20445;-74
2023/07/25 05:02:43;;;;;;;6.57;1.77;;;15.10;99.90;;;;;;6161021;23;20027;-74
2023/07/25 05:05:09;;;;;;;6.15;1.30;;;15.10;99.90;;;;;;6160901;23;20072;-74
2023/07/25 05:07:34;;;;;;;8.43;1.70;;;15.10;99.90;;;;;;6161022;23;20019;-74
2023/07/25 05:10:00;;;;;;;7.90;1.45;;;15.10;99.90;;;;;;6161012;23;20063;-74
2023/07/25 05:12:25;;;;;;;10.98;1.42;;;15.10;99.90;;;;;;6160907;23;20099;-74
2023/07/25 05:14:51;;;;;;;5.97;0.90;;;15.10;99.90;;;;;;6160911;23;20017;-73
2023/07/25 05:17:17;;;;;;;4.68;1.25;;;15.10;99.90;;;;;;6160795;23;20322;-74
2023/07/25 05:19:42;;;;;;;5.70;0.90;;;15.10;99.90;;;;;;6160871;23;20437;-74
2023/07/25 05:22:08;;;;;;;7.72;1.35;;;15.10;99.90;;;;;;6160831;23;20024;-74
2023/07/25 05:24:33;;;;;;;7.13;1.10;;;15.10;99.90;;;;;;6160736;23;20036;-74
2023/07/25 05:27:02;;;;;;;8.00;1.90;;;15.10;99.90;;;;;;6160592;23;20452;-74
2023/07/25 05:29:27;;;;;;;8.60;1.08;;;15.10;99.90;;;;;;6160996;23;20433;-74
2023/07/25 05:31:53;;;;;;;8.73;1.20;;;15.30;99.90;;;;;;6160828;23;20055;-74
2023/07/25 05:34:18;;;;;;;8.68;1.27;;;15.30;99.90;;;;;;6160829;23;20121;-74
2023/07/25 05:36:44;;;;;;;5.20;1.05;;;15.40;99.90;;;;;;6160619;23;20088;-74
2023/07/25 05:39:10;;;;;;;6.20;0.93;;;15.40;99.90;;;;;;6187305;23;20013;-74
2023/07/25 05:41:37;;;;;;;4.82;0.90;;;15.40;99.90;;;;;;6160631;23;20341;-74
2023/07/25 05:44:03;;;;;;;9.93;1.83;;;15.40;99.90;;;;;;6158840;23;20454;-74
2023/07/25 05:46:29;;;;;;;6.53;1.15;;;15.40;99.90;;;;;;6160547;23;20444;-74
2023/07/25 05:48:54;;;;;;;5.57;1.15;;;15.40;99.90;;;;;;6160598;23;20019;-74
2023/07/25 05:51:20;;;;;;;6.72;1.15;;;15.40;99.90;;;;;;6160593;23;20033;-74
2023/07/25 05:53:46;;;;;;;5.10;0.77;;;15.40;99.90;;;;;;6160564;23;20434;-73
2023/07/25 05:56:11;;;;;;;4.57;1.00;;;15.50;99.90;;;;;;6159841;23;20021;-74
2023/07/25 05:58:37;;;;;;;9.02;0.90;;;15.60;99.90;;;;;;6186855;23;20442;-73
2023/07/25 06:01:03;;;;;;;5.70;1.02;;;15.60;99.90;;;;;;6160451;23;20020;-74
2023/07/25 06:03:28;;;;;;;5.03;0.90;;;15.50;99.90;;;;;;6160488;23;20045;-74
2023/07/25 06:05:54;;;;;;;4.80;0.90;;;15.60;99.90;;;;;;6160497;23;20067;-74
2023/07/25 06:08:19;;;;;;;3.88;1.15;;;15.80;99.90;;;;;;6187081;23;20013;-74
2023/07/25 06:10:45;;;;;;;3.33;0.90;;;15.90;99.90;;;;;;6160331;23;20020;-74
2023/07/25 06:13:14;;;;;;;4.50;1.00;;;16.10;99.90;;;;;;6160272;23;20021;-73
2023/07/25 06:15:40;;;;;;;5.07;0.90;;;16.10;99.90;;;;;;6160178;23;20025;-73
2023/07/25 06:18:05;;;;;;;5.28;0.93;;;16.30;99.90;;;;;;6160394;23;20437;-73
2023/07/25 06:20:34;;;;;;;6.03;1.05;;;16.30;99.90;;;;;;6160173;23;20079;-74
2023/07/25 06:23:02;;;;;;;4.32;1.00;;;16.40;99.90;;;;;;6160070;23;20323;-73
2023/07/25 06:25:29;;;;;;;3.67;0.90;;;16.50;99.90;;;;;;6159936;23;20049;-77
2023/07/25 06:27:54;;;;;;;6.93;1.20;;;16.50;99.90;;;;;;6160228;23;20021;-74
2023/07/25 06:30:20;;;;;;;5.13;0.80;;;16.50;99.90;;;;;;6160286;23;20078;-76
2023/07/25 06:32:46;;;;;;;3.75;0.70;;;16.40;99.90;;;;;;6160183;23;20454;-74
2023/07/25 06:35:12;;;;;;;6.78;0.70;;;16.40;99.90;;;;;;6186785;23;20052;-75
2023/07/25 06:37:38;;;;;;;4.07;0.95;;;16.20;99.90;;;;;;6160101;23;20021;-74
2023/07/25 06:40:04;;;;;;;3.65;0.73;;;16.20;99.90;;;;;;6158824;23;20017;-73
2023/07/25 06:42:30;;;;;;;2.85;0.70;;;16.30;99.90;;;;;;6186110;23;20021;-73
2023/07/25 06:44:56;;;;;;;2.83;0.50;;;16.40;99.90;;;;;;6159666;23;20076;-73
2023/07/25 06:47:22;;;;;;;4.38;0.80;;;16.70;99.90;;;;;;6158729;23;20048;-73
2023/07/25 06:49:48;;;;;;;3.60;0.98;;;16.90;99.90;;;;;;6159722;23;20485;-74
2023/07/25 06:52:14;;;;;;;5.80;0.98;;;17.00;99.90;;;;;;6159852;23;20450;-73
2023/07/25 06:54:41;;;;;;;5.47;1.17;;;17.20;99.90;;;;;;6185899;23;20024;-74
2023/07/25 06:57:07;;;;;;;5.68;1.00;;;17.30;99.90;;;;;;6159684;23;20052;-73
2023/07/25 06:59:32;;;;;;;5.00;0.98;;;17.40;99.90;;;;;;6159649;23;20017;-73
2023/07/25 07:01:58;;;;;;;4.30;0.80;;;17.50;99.90;;;;;;6185785;23;20079;-73
2023/07/25 07:04:26;;;;;;;3.95;0.60;;;17.60;99.90;;;;;;6186393;23;20084;-73
2023/07/25 07:06:52;;;;;;;6.35;1.13;;;17.80;99.90;;;;;;6159522;23;20028;-74
2023/07/25 07:09:17;;;;;;;9.32;1.00;;;17.80;99.90;;;;;;6159604;23;20013;-74
2023/07/25 07:11:43;;;;;;;4.43;0.98;;;17.70;99.90;;;;;;6159525;23;20061;-74
2023/07/25 07:14:12;;;;;;;3.25;0.73;;;17.70;99.90;;;;;;6159431;23;20323;-74
2023/07/25 07:16:37;;;;;;;7.10;1.42;;;17.90;99.90;;;;;;6159514;23;20044;-74
2023/07/25 07:19:03;;;;;;;5.72;1.45;;;17.90;99.90;;;;;;6159532;23;20390;-74
2023/07/25 07:21:29;;;;;;;6.07;1.35;;;18.00;99.90;;;;;;6159463;23;20036;-74
2023/07/25 07:23:55;;;;;;;5.00;1.17;;;18.10;99.90;;;;;;6159478;23;20341;-74
2023/07/25 07:26:21;;;;;;;13.10;1.30;;;18.00;99.90;;;;;;6158885;23;20020;-74
2023/07/25 07:28:47;;;;;;;4.70;0.98;;;18.10;99.90;;;;;;6159510;23;20087;-73
2023/07/25 07:31:15;;;;;;;3.00;0.95;;;18.20;99.90;;;;;;6159419;23;20017;-74
2023/07/25 07:33:40;;;;;;;6.22;0.80;;;18.30;99.90;;;;;;6159366;23;20059;-74
2023/07/25 07:36:06;;;;;;;5.03;0.85;;;18.40;99.90;;;;;;6159181;23;20361;-74
2023/07/25 07:38:31;;;;;;;5.70;1.38;;;18.50;99.90;;;;;;6185592;23;20025;-74
2023/07/25 07:40:57;;;;;;;5.25;1.08;;;18.50;99.90;;;;;;6159414;23;20044;-74
2023/07/25 07:43:23;;;;;;;5.68;0.80;;;18.50;99.90;;;;;;6185670;23;20021;-74
2023/07/25 07:45:49;;;;;;;5.70;0.85;;;18.50;99.90;;;;;;6159310;23;20031;-73
2023/07/25 07:48:15;;;;;;;4.88;1.15;;;18.50;99.90;;;;;;6159345;23;20322;-74
2023/07/25 07:50:42;;;;;;;6.05;1.05;;;18.50;99.90;;;;;;6159279;23;20467;-74
2023/07/25 07:53:08;;;;;;;3.97;0.80;;;18.60;99.90;;;;;;6159032;23;20013;-73
2023/07/25 07:55:34;;;;;;;5.20;1.02;;;18.60;99.90;;;;;;6159144;23;20100;-73
2023/07/25 07:58:00;;;;;;;6.00;1.15;;;18.60;99.90;;;;;;6159269;23;20025;-74
2023/07/25 08:00:26;;;;;;;5.60;1.30;;;18.70;99.90;;;;;;6159034;23;20024;-73
2023/07/25 08:02:51;;;;;;;5.10;1.05;;;18.80;99.90;;;;;;6159278;23;20029;-73
2023/07/25 08:05:17;;;;;;;6.03;0.80;;;18.90;99.90;;;;;;6158839;23;20378;-74
2023/07/25 08:07:43;;;;;;;14.45;1.00;;;19.00;99.90;;;;;;6159267;23;20021;-73
2023/07/25 08:10:09;;;;;;;6.13;0.93;;;19.00;99.90;;;;;;6157576;23;20029;-73
2023/07/25 08:12:35;;;;;;;5.60;0.80;;;19.00;99.90;;;;;;6158072;23;20079;-74
2023/07/25 08:15:02;;;;;;;5.65;1.20;;;19.10;99.90;;;;;;6158331;23;20052;-73
2023/07/25 08:17:28;;;;;;;2.72;0.82;;;19.10;99.90;;;;;;6159092;23;20021;-74
2023/07/25 08:19:53;;;;;;;4.28;0.70;;;19.10;99.90;;;;;;6159808;23;20020;-73
2023/07/25 08:22:19;;;;;;;5.13;0.93;;;19.20;99.90;;;;;;6161234;23;20021;-74
2023/07/25 08:24:45;;;;;;;4.85;0.60;;;19.30;99.90;;;;;;6160976;23;20029;-73
2023/07/25 08:27:10;;;;;;;4.57;0.90;;;19.20;99.90;;;;;;6159023;23;20017;-74
2023/07/25 08:29:45;;;;;;;7.60;0.95;;;19.30;99.90;;;;;;6160894;23;20033;-74
2023/07/25 08:32:11;;;;;;;4.45;1.13;;;19.30;99.90;;;;;;6160892;23;20349;-73
2023/07/25 08:34:38;;;;;;;5.15;0.75;;;18.90;99.90;;;;;;6159463;23;20021;-74
2023/07/25 08:37:07;;;;;;;6.93;1.13;;;18.70;99.90;;;;;;6159756;23;20031;-73
2023/07/25 08:39:34;;;;;;;7.72;1.08;;;18.60;99.90;;;;;;6160667;23;20016;-79
2023/07/25 08:42:03;;;;;;;7.00;0.80;;;18.60;99.90;;;;;;6161048;23;20021;-74
2023/07/25 08:44:32;;;;;;;6.88;1.60;;;18.40;99.90;;;;;;6161162;23;20021;-75
2023/07/25 08:47:01;;;;;;;5.70;1.30;;;18.40;99.90;;;;;;6187752;23;20024;-74
2023/07/25 08:49:35;;;;;;;7.00;1.20;;;18.40;99.90;;;;;;6161227;23;20012;-74
2023/07/25 08:52:03;;;;;;;6.63;1.23;;;18.30;99.90;;;;;;6161154;23;20025;-74
2023/07/25 08:54:34;;;;;;;7.90;1.38;;;18.20;99.90;;;;;;6185872;23;20444;-74
2023/07/25 08:57:01;;;;;;;6.35;1.17;;;18.20;99.90;;;;;;6187214;23;20075;-75
2023/07/25 08:59:28;;;;;;;5.95;1.40;;;18.40;99.90;;;;;;6187316;23;20028;-75
2023/07/25 09:01:54;;;;;;;6.07;1.92;;;18.50;99.90;;;;;;6160934;23;20464;-75
2023/07/25 09:04:20;;;;;;;10.02;1.88;;;18.70;99.90;;;;;;6160947;23;20017;-74
2023/07/25 09:06:47;;;;;;;9.50;1.52;;;18.80;99.90;;;;;;6187292;23;20492;-74
2023/07/25 09:09:18;;;;;;;6.18;1.45;;;18.90;99.90;;;;;;6187668;23;20092;-74
2023/07/25 09:11:45;;;;;;;7.75;1.40;;;19.00;99.90;;;;;;6160854;23;20341;-75
2023/07/25 09:14:13;;;;;;;9.38;1.67;;;18.80;99.90;;;;;;6160929;23;20071;-74
2023/07/25 09:16:39;;;;;;;12.90;2.40;;;18.90;99.90;;;;;;6160560;23;20021;-75
2023/07/25 09:19:05;;;;;;;6.22;1.58;;;19.10;99.90;;;;;;6187601;23;20049;-75
2023/07/25 09:21:31;;;;;;;6.88;0.98;;;19.20;99.90;;;;;;6160906;23;20024;-75
2023/07/25 09:23:59;;;;;;;6.07;1.48;;;19.10;99.90;;;;;;6160765;23;20017;-74
2023/07/25 09:26:28;;;;;;;7.15;1.38;;;19.20;99.90;;;;;;6160486;23;20021;-75
2023/07/25 09:28:56;;;;;;;7.72;1.30;;;19.40;99.90;;;;;;6160751;23;20025;-75
2023/07/25 09:31:23;;;;;;;7.43;1.25;;;19.30;99.90;;;;;;6160748;23;20020;-75
2023/07/25 09:33:51;;;;;;;3.83;0.90;;;19.30;99.90;;;;;;6160676;23;20028;-75
2023/07/25 09:36:20;;;;;;;10.45;1.40;;;19.30;99.90;;;;;;6187169;23;20042;-78
2023/07/25 09:38:54;;;;;;;5.55;1.10;;;19.40;99.90;;;;;;6160682;23;20025;-76
2023/07/25 09:41:35;;;;;;;13.68;1.85;;;19.40;99.90;;;;;;6160596;23;20013;-77
2023/07/25 09:44:05;;;;;;;5.63;1.98;;;19.60;99.90;;;;;;6187728;23;20017;-76
2023/07/25 09:46:31;;;;;;;6.85;1.00;;;19.70;99.90;;;;;;6160203;23;20020;-80
2023/07/25 09:48:57;;;;;;;7.45;1.50;;;19.80;99.90;;;;;;6160554;23;20100;-77
2023/07/25 09:51:25;;;;;;;7.30;1.00;;;19.80;99.90;;;;;;6186933;23;20056;-77
2023/07/25 09:54:04;;;;;;;6.03;1.08;;;19.70;99.90;;;;;;6160302;23;20013;-76
2023/07/25 09:56:29;;;;;;;8.93;1.70;;;19.80;99.90;;;;;;6160517;23;20021;-77
2023/07/25 09:58:55;;;;;;;6.57;1.10;;;19.90;99.90;;;;;;6155846;23;20024;-77
2023/07/25 10:01:21;;;;;;;5.40;1.20;;;20.00;99.90;;;;;;6149057;23;20024;-77
2023/07/25 10:03:47;;;;;;;5.13;1.10;;;20.10;99.90;;;;;;6154144;23;20021;-77
2023/07/25 10:06:16;;;;;;;6.82;0.90;;;20.00;99.90;;;;;;6155554;23;20070;-77
2023/07/25 10:08:46;;;;;;;8.65;1.27;;;20.00;99.90;;;;;;6154692;23;20100;-77
2023/07/25 10:11:12;;;;;;;7.18;0.80;;;20.10;99.90;;;;;;6153517;23;20381;-76
2023/07/25 10:13:43;;;;;;;4.30;1.00;;;20.30;99.90;;;;;;6154465;23;20021;-77
2023/07/25 10:16:13;;;;;;;5.65;0.80;;;20.30;99.90;;;;;;6155273;23;20013;-78
2023/07/25 10:18:39;;;;;;;2.83;0.77;;;20.60;99.90;;;;;;6181222;23;20025;-77
2023/07/25 10:21:07;;;;;;;3.97;0.85;;;20.60;99.90;;;;;;6180518;23;20445;-77
2023/07/25 10:23:34;;;;;;;5.57;1.20;;;20.80;99.90;;;;;;6182266;23;20024;-78
2023/07/25 10:26:14;;;;;;;5.65;0.77;;;20.80;99.90;;;;;;6180825;23;20017;-77
2023/07/25 10:28:40;;;;;;;2.72;0.70;;;20.50;99.90;;;;;;6180906;23;20032;-78
2023/07/25 10:31:10;;;;;;;5.50;1.00;;;20.10;99.90;;;;;;6180787;23;20012;-76
2023/07/25 10:33:39;;;;;;;6.00;1.00;;;20.00;99.90;;;;;;6130668;23;20025;-78
2023/07/25 10:36:09;;;;;;;5.50;1.05;;;19.90;99.90;;;;;;6154539;23;20499;-78
2023/07/25 10:38:36;;;;;;;8.10;0.95;;;19.80;99.90;;;;;;6180923;23;20020;-78
2023/07/25 10:41:15;;;;;;;5.18;0.90;;;19.80;99.90;;;;;;6154609;23;20013;-75
2023/07/25 10:43:55;;;;;;;3.97;0.70;;;20.00;99.90;;;;;;6181135;23;20021;-77
2023/07/25 10:46:35;;;;;;;3.85;0.80;;;20.10;99.90;;;;;;6154566;23;20101;-78
2023/07/25 10:49:02;;;;;;;8.18;0.98;;;20.20;99.90;;;;;;6154345;23;20023;-77
2023/07/25 10:51:48;;;;;;;5.88;0.82;;;20.20;99.90;;;;;;6181513;23;20016;-78
2023/07/25 10:54:17;;;;;;;4.88;1.42;;;20.40;99.90;;;;;;6181065;23;20013;-78
2023/07/25 10:57:14;;;;;;;5.50;0.90;;;20.50;99.90;;;;;;6155146;23;20021;-77
2023/07/25 11:00:00;;;;;;;4.10;0.77;;;20.70;99.90;;;;;;6154052;23;20021;-76
2023/07/25 11:02:42;;;;;;;4.53;0.70;;;20.70;99.90;;;;;;6154469;23;20052;-77
2023/07/25 11:05:14;;;;;;;4.35;0.70;;;20.80;99.90;;;;;;6155134;23;20056;-79
2023/07/25 11:07:46;;;;;;;6.20;0.80;;;20.90;99.90;;;;;;6154514;23;20028;-79
2023/07/25 11:10:25;;;;;;;6.18;0.90;;;20.80;99.90;;;;;;6154005;23;20094;-79
2023/07/25 11:12:56;;;;;;;4.45;0.70;;;20.90;99.90;;;;;;6153514;23;20468;-76
2023/07/25 11:15:22;;;;;;;5.00;0.70;;;20.80;99.90;;;;;;6153934;23;20067;-76
2023/07/25 11:17:48;;;;;;;4.43;0.70;;;20.60;99.90;;;;;;6155113;23;20024;-77
2023/07/25 11:20:16;;;;;;;3.25;0.57;;;20.50;99.90;;;;;;6154020;23;20013;-79
2023/07/25 11:22:42;;;;;;;2.80;0.70;;;20.30;99.90;;;;;;6153746;23;20020;-78
2023/07/25 11:25:08;;;;;;;4.03;0.75;;;20.20;99.90;;;;;;6154604;23;20071;-79
2023/07/25 11:27:40;;;;;;;5.28;0.80;;;20.00;99.90;;;;;;6180198;23;20041;-79
2023/07/25 11:30:15;;;;;;;5.80;0.70;;;19.80;99.90;;;;;;6153510;23;20020;-78
2023/07/25 11:32:48;;;;;;;5.10;0.90;;;19.90;99.90;;;;;;6153505;23;20052;-79
2023/07/25 11:35:17;;;;;;;9.65;1.40;;;20.00;99.90;;;;;;6154755;23;20020;-80
2023/07/25 11:37:43;;;;;;;4.85;0.82;;;19.80;99.90;;;;;;6154244;23;20051;-77
2023/07/25 11:40:28;;;;;;;4.90;1.02;;;19.80;99.90;;;;;;6153702;23;20024;-78
2023/07/25 11:42:54;;;;;;;6.28;1.33;;;19.80;99.90;;;;;;6179797;23;20095;-78
2023/07/25 11:45:21;;;;;;;5.47;0.88;;;19.70;99.90;;;;;;6153438;23;20453;-77
2023/07/25 11:47:49;;;;;;;5.53;0.70;;;19.80;99.90;;;;;;6156995;23;20028;-79
2023/07/25 11:50:15;;;;;;;4.15;0.95;;;19.80;99.90;;;;;;6157226;23;20020;-79
2023/07/25 11:52:43;;;;;;;5.38;0.70;;;19.80;99.90;;;;;;6154353;23;20356;-79
2023/07/25 11:55:10;;;;;;;4.40;0.80;;;19.60;99.90;;;;;;6155870;23;20535;-80
2023/07/25 11:57:42;;;;;;;5.03;0.70;;;19.60;99.90;;;;;;6158926;23;20018;-80
2023/07/25 12:00:15;;;;;;;3.83;0.80;;;19.60;99.90;;;;;;6184574;23;20021;-80
2023/07/25 12:02:42;;;;;;;6.00;0.85;;;19.60;99.90;;;;;;6183810;23;20068;-78
2023/07/25 12:05:09;;;;;;;6.20;0.98;;;19.60;99.90;;;;;;6185876;23;20024;-78
2023/07/25 12:08:10;;;;;;;6.65;0.85;;;19.50;99.90;;;;;;6159419;23;20091;-76
2023/07/25 12:10:36;;;;;;;5.70;0.77;;;19.50;99.90;;;;;;6097821;23;20067;-76
2023/07/25 12:13:03;;;;;;;3.47;0.70;;;19.50;99.90;;;;;;6158878;23;20056;-76
2023/07/25 12:15:51;;;;;;;4.07;0.57;;;19.50;99.90;;;;;;6159118;23;20013;-75
2023/07/25 12:18:28;;;;;;;4.93;0.60;;;19.60;99.90;;;;;;6159417;23;20028;-75
2023/07/25 12:20:56;;;;;;;5.78;0.80;;;19.50;99.90;;;;;;6159450;23;20017;-76
2023/07/25 12:23:32;;;;;;;2.53;0.70;;;19.40;99.90;;;;;;6159332;23;20541;-76
2023/07/25 12:26:02;;;;;;;3.55;0.80;;;19.60;99.90;;;;;;6185309;23;20064;-76
2023/07/25 12:28:41;;;;;;;2.38;0.60;;;19.70;99.90;;;;;;6185838;23;20024;-76
2023/07/25 12:31:07;;;;;;;4.30;0.70;;;19.90;99.90;;;;;;6185789;23;20098;-76
2023/07/25 12:33:36;;;;;;;2.70;0.63;;;20.00;99.90;;;;;;6151750;23;20031;-75
2023/07/25 12:36:02;;;;;;;1.95;0.45;;;19.80;99.90;;;;;;6185372;23;20049;-75
2023/07/25 12:38:28;;;;;;;3.45;0.60;;;19.90;99.90;;;;;;6185906;23;20028;-78
2023/07/25 12:40:53;;;;;;;2.47;0.50;;;19.90;99.90;;;;;;6159172;23;20013;-75
2023/07/25 12:43:19;;;;;;;3.92;0.90;;;20.10;99.90;;;;;;6158991;23;20025;-75
2023/07/25 12:45:45;;;;;;;2.72;0.70;;;20.20;99.90;;;;;;6158897;23;20086;-75